createdAt,value
2016-11-11T00:00:07.540Z,0
2016-11-11T00:01:17.568Z,0
2016-11-11T00:02:27.555Z,0
2016-11-11T00:03:37.841Z,0
2016-11-11T00:04:47.822Z,0
2016-11-11T00:05:57.818Z,0
2016-11-11T00:07:08.123Z,0
2016-11-11T00:08:18.397Z,0
2016-11-11T00:09:28.373Z,0
2016-11-11T00:10:38.029Z,0
2016-11-11T00:11:48.321Z,0
2016-11-11T00:12:58.304Z,0
2016-11-11T00:14:08.601Z,0
2016-11-11T00:15:18.261Z,0
2016-11-11T00:16:28.547Z,0
2016-11-11T00:17:38.532Z,0
2016-11-11T00:18:48.511Z,0
2016-11-11T00:19:58.183Z,0
2016-11-11T00:21:08.499Z,0
2016-11-11T00:22:18.481Z,0
2016-11-11T00:23:28.768Z,0
2016-11-11T00:24:39.043Z,0
2016-11-11T00:25:49.017Z,0
2016-11-11T00:26:59.008Z,0
2016-11-11T00:28:09.289Z,0
2016-11-11T00:29:19.573Z,0
2016-11-11T00:30:29.543Z,0
2016-11-11T00:31:39.199Z,0
2016-11-11T00:32:49.192Z,0
2016-11-11T00:33:59.489Z,0
2016-11-11T00:35:09.772Z,0
2016-11-11T00:36:19.742Z,0
2016-11-11T00:37:29.704Z,0
2016-11-11T00:38:39.683Z,0
2016-11-11T00:39:49.970Z,0
2016-11-11T00:41:00.247Z,0
2016-11-11T00:42:09.922Z,0
2016-11-11T00:43:19.883Z,0
2016-11-11T00:44:30.172Z,0
2016-11-11T00:45:39.842Z,0
2016-11-11T00:46:49.805Z,0
2016-11-11T00:47:59.769Z,0
2016-11-11T00:49:09.735Z,0
2016-11-11T00:50:19.733Z,0
2016-11-11T00:51:30.018Z,0
2016-11-11T00:52:40.304Z,0
2016-11-11T00:53:50.602Z,0
2016-11-11T00:55:00.562Z,0
2016-11-11T00:56:10.260Z,0
2016-11-11T00:57:20.225Z,0
2016-11-11T00:58:30.509Z,0
2016-11-11T00:59:40.189Z,0
2016-11-11T01:00:49.862Z,0
2016-11-11T01:01:59.837Z,0
2016-11-11T01:03:10.130Z,0
2016-11-11T01:04:20.398Z,0
2016-11-11T01:05:30.694Z,0
2016-11-11T01:06:40.663Z,0
2016-11-11T01:07:50.345Z,0
2016-11-11T01:09:00.323Z,0
2016-11-11T01:10:10.299Z,0
2016-11-11T01:11:20.583Z,0
2016-11-11T01:12:30.538Z,0
2016-11-11T01:13:40.525Z,0
2016-11-11T01:14:50.531Z,0
2016-11-11T01:16:00.808Z,0
2016-11-11T01:17:10.488Z,0
2016-11-11T01:18:20.780Z,0
2016-11-11T01:19:30.444Z,0
2016-11-11T01:20:39.794Z,0
2016-11-11T01:21:49.762Z,0
2016-11-11T01:23:00.062Z,0
2016-11-11T01:24:10.054Z,0
2016-11-11T01:25:20.322Z,0
2016-11-11T01:26:30.597Z,0
2016-11-11T01:27:40.575Z,0
2016-11-11T01:28:50.866Z,0
2016-11-11T01:30:01.148Z,0
2016-11-11T01:31:10.828Z,0
2016-11-11T01:32:21.096Z,0
2016-11-11T01:33:31.381Z,0
2016-11-11T01:34:41.659Z,0
2016-11-11T01:35:51.936Z,0
2016-11-11T01:37:01.908Z,0
2016-11-11T01:38:11.890Z,0
2016-11-11T01:39:22.172Z,0
2016-11-11T01:40:31.838Z,0
2016-11-11T01:41:41.809Z,0
2016-11-11T01:42:52.111Z,0
2016-11-11T01:44:02.387Z,0
2016-11-11T01:45:12.679Z,0
2016-11-11T01:46:22.649Z,0
2016-11-11T01:47:32.628Z,0
2016-11-11T01:48:42.904Z,0
2016-11-11T01:49:52.896Z,0
2016-11-11T01:51:03.172Z,0
2016-11-11T01:52:13.467Z,0
2016-11-11T01:53:23.446Z,0
2016-11-11T01:54:33.723Z,0
2016-11-11T01:55:43.401Z,0
2016-11-11T01:56:53.680Z,0
2016-11-11T01:58:03.538Z,0
2016-11-11T01:59:13.829Z,0
2016-11-11T02:00:23.512Z,0
2016-11-11T02:01:33.797Z,0
2016-11-11T02:02:43.155Z,0
2016-11-11T02:03:53.432Z,0
2016-11-11T02:05:03.709Z,0
2016-11-11T02:06:13.994Z,0
2016-11-11T02:07:23.966Z,0
2016-11-11T02:08:33.629Z,0
2016-11-11T02:09:43.906Z,0
2016-11-11T02:10:53.579Z,0
2016-11-11T02:12:03.854Z,0
2016-11-11T02:13:14.140Z,0
2016-11-11T02:14:24.112Z,0
2016-11-11T02:15:34.087Z,0
2016-11-11T02:16:43.764Z,0
2016-11-11T02:17:54.051Z,0
2016-11-11T02:19:04.333Z,0
2016-11-11T02:20:14.006Z,0
2016-11-11T02:21:23.997Z,0
2016-11-11T02:22:34.279Z,0
2016-11-11T02:23:44.279Z,0
2016-11-11T02:24:54.247Z,0
2016-11-11T02:26:04.533Z,0
2016-11-11T02:27:14.800Z,0
2016-11-11T02:28:25.091Z,0
2016-11-11T02:29:35.375Z,0
2016-11-11T02:30:45.654Z,0
2016-11-11T02:31:55.936Z,0
2016-11-11T02:33:05.949Z,0
2016-11-11T02:34:15.612Z,0
2016-11-11T02:35:25.897Z,0
2016-11-11T02:36:36.169Z,0
2016-11-11T02:37:46.446Z,0
2016-11-11T02:38:56.118Z,0
2016-11-11T02:40:06.089Z,0
2016-11-11T02:41:16.404Z,0
2016-11-11T02:42:26.697Z,0
2016-11-11T02:43:36.974Z,0
2016-11-11T02:44:46.946Z,0
2016-11-11T02:45:57.222Z,0
2016-11-11T02:47:07.189Z,0
2016-11-11T02:48:17.163Z,0
2016-11-11T02:49:27.442Z,0
2016-11-11T02:50:37.727Z,0
2016-11-11T02:51:47.391Z,0
2016-11-11T02:52:57.668Z,0
2016-11-11T02:54:07.934Z,0
2016-11-11T02:55:17.891Z,0
2016-11-11T02:56:27.883Z,0
2016-11-11T02:57:37.854Z,0
2016-11-11T02:58:47.817Z,0
2016-11-11T02:59:58.113Z,0
2016-11-11T03:01:08.101Z,0
2016-11-11T03:32:47.636Z,0
2016-11-11T03:33:57.910Z,0
2016-11-11T03:35:07.253Z,0
2016-11-11T03:36:17.215Z,0
2016-11-11T03:37:27.504Z,0
2016-11-11T03:38:37.503Z,0
2016-11-11T03:39:47.174Z,0
2016-11-11T03:40:57.156Z,0
2016-11-11T03:42:07.424Z,0
2016-11-11T03:43:17.690Z,0
2016-11-11T03:44:27.351Z,0
2016-11-11T03:45:37.322Z,0
2016-11-11T03:46:47.590Z,0
2016-11-11T03:47:57.602Z,0
2016-11-11T03:49:07.879Z,0
2016-11-11T03:50:17.849Z,0
2016-11-11T03:51:27.496Z,0
2016-11-11T03:52:37.760Z,0
2016-11-11T03:53:48.042Z,0
2016-11-11T03:54:58.010Z,0
2016-11-11T03:56:08.023Z,0
2016-11-11T03:57:18.314Z,0
2016-11-11T03:58:28.590Z,0
2016-11-11T03:59:38.867Z,0
2016-11-11T04:00:49.149Z,0
2016-11-11T04:01:59.430Z,0
2016-11-11T04:03:09.405Z,0
2016-11-11T04:04:19.071Z,0
2016-11-11T04:05:29.052Z,0
2016-11-11T04:06:39.324Z,0
2016-11-11T04:07:49.633Z,0
2016-11-11T04:08:59.910Z,0
2016-11-11T04:10:09.893Z,0
2016-11-11T04:11:19.862Z,0
2016-11-11T04:12:30.135Z,0
2016-11-11T04:13:40.117Z,0
2016-11-11T04:14:50.088Z,0
2016-11-11T04:16:00.641Z,0
2016-11-11T04:17:10.922Z,0
2016-11-11T04:18:20.892Z,0
2016-11-11T04:19:31.176Z,0
2016-11-11T04:20:41.157Z,0
2016-11-11T04:21:50.810Z,0
2016-11-11T04:23:01.077Z,0
2016-11-11T04:24:11.349Z,0
2016-11-11T04:25:21.326Z,0
2016-11-11T04:26:31.611Z,0
2016-11-11T04:27:41.597Z,0
2016-11-11T04:28:51.568Z,0
2016-11-11T04:30:00.617Z,0
2016-11-11T04:31:10.893Z,0
2016-11-11T04:32:21.171Z,0
2016-11-11T04:33:31.133Z,0
2016-11-11T04:34:40.798Z,0
2016-11-11T04:35:50.820Z,0
2016-11-11T04:37:00.797Z,0
2016-11-11T04:38:10.802Z,0
2016-11-11T04:39:21.118Z,0
2016-11-11T04:40:30.474Z,0
2016-11-11T04:41:40.738Z,0
2016-11-11T04:42:51.024Z,0
2016-11-11T04:44:00.992Z,0
2016-11-11T04:45:10.963Z,0
2016-11-11T04:46:21.245Z,0
2016-11-11T04:47:31.561Z,0
2016-11-11T04:48:41.832Z,0
2016-11-11T04:49:52.116Z,0
2016-11-11T04:51:02.082Z,0
2016-11-11T04:52:12.045Z,0
2016-11-11T04:53:21.715Z,0
2016-11-11T04:54:31.977Z,0
2016-11-11T04:55:41.949Z,0
2016-11-11T04:56:51.922Z,0
2016-11-11T04:58:01.903Z,0
2016-11-11T04:59:11.879Z,0
2016-11-11T05:00:21.841Z,0
2016-11-11T05:01:32.103Z,0
2016-11-11T05:02:42.373Z,0
2016-11-11T05:03:52.650Z,0
2016-11-11T05:05:02.627Z,0
2016-11-11T05:06:12.919Z,0
2016-11-11T05:07:22.891Z,0
2016-11-11T05:08:33.192Z,0
2016-11-11T05:09:43.164Z,0
2016-11-11T05:10:53.155Z,0
2016-11-11T05:12:03.057Z,0
2016-11-11T05:13:13.324Z,0
2016-11-11T05:14:22.980Z,0
2016-11-11T05:15:32.952Z,0
2016-11-11T05:16:42.925Z,0
2016-11-11T05:17:52.896Z,0
2016-11-11T05:19:03.182Z,0
2016-11-11T05:20:13.106Z,0
2016-11-11T05:21:23.387Z,0
2016-11-11T05:22:33.358Z,0
2016-11-11T05:23:43.330Z,0
2016-11-11T05:24:52.987Z,0
2016-11-11T05:26:03.261Z,0
2016-11-11T05:27:13.540Z,0
2016-11-11T05:28:23.827Z,0
2016-11-11T05:29:33.514Z,0
2016-11-11T05:30:43.782Z,0
2016-11-11T05:31:53.176Z,0
2016-11-11T05:33:02.830Z,0
2016-11-11T05:34:12.786Z,0
2016-11-11T05:35:23.072Z,0
2016-11-11T05:36:32.734Z,0
2016-11-11T05:37:43.006Z,0
2016-11-11T05:38:52.966Z,0
2016-11-11T05:40:02.939Z,0
2016-11-11T05:41:12.310Z,0
2016-11-11T05:42:22.592Z,0
2016-11-11T05:43:32.874Z,0
2016-11-11T05:44:43.155Z,0
2016-11-11T05:45:53.429Z,0
2016-11-11T05:47:03.101Z,0
2016-11-11T05:48:13.067Z,0
2016-11-11T05:49:23.038Z,0
2016-11-11T05:50:33.012Z,0
2016-11-11T05:51:42.996Z,0
2016-11-11T05:52:53.264Z,0
2016-11-11T05:54:03.229Z,0
2016-11-11T05:55:12.882Z,5
2016-11-11T05:56:22.842Z,5
2016-11-11T05:57:32.829Z,5
2016-11-11T05:58:42.795Z,5
2016-11-11T05:59:53.078Z,5
2016-11-11T06:01:03.380Z,5
2016-11-11T06:02:13.352Z,5
2016-11-11T06:03:23.331Z,10
2016-11-11T06:04:33.314Z,10
2016-11-11T06:05:43.290Z,10
2016-11-11T06:06:53.569Z,10
2016-11-11T06:08:03.545Z,10
2016-11-11T06:09:13.818Z,10
2016-11-11T06:10:23.796Z,10
2016-11-11T06:11:33.774Z,15
2016-11-11T06:12:43.747Z,15
2016-11-11T06:13:53.710Z,15
2016-11-11T06:15:03.686Z,15
2016-11-11T06:16:13.646Z,15
2016-11-11T06:17:23.608Z,15
2016-11-11T06:18:33.936Z,15
2016-11-11T06:19:43.602Z,15
2016-11-11T06:20:52.953Z,15
2016-11-11T06:22:02.307Z,15
2016-11-11T06:23:11.964Z,20
2016-11-11T06:24:22.233Z,20
2016-11-11T06:25:32.508Z,20
2016-11-11T06:26:42.481Z,20
2016-11-11T06:27:52.448Z,25
2016-11-11T06:29:02.421Z,25
2016-11-11T06:30:12.634Z,25
2016-11-11T06:31:22.919Z,25
2016-11-11T06:32:33.196Z,25
2016-11-11T06:33:42.564Z,25
2016-11-11T06:34:52.600Z,25
2016-11-11T06:36:02.869Z,25
2016-11-11T06:37:12.538Z,25
2016-11-11T06:38:22.555Z,25
2016-11-11T06:39:32.825Z,30
2016-11-11T06:40:43.109Z,25
2016-11-11T06:41:53.074Z,25
2016-11-11T06:43:03.384Z,25
2016-11-11T06:44:13.393Z,30
2016-11-11T06:45:23.672Z,30
2016-11-11T06:46:33.642Z,30
2016-11-11T06:47:43.608Z,30
2016-11-11T06:48:53.575Z,30
2016-11-11T06:50:03.839Z,30
2016-11-11T06:51:13.200Z,35
2016-11-11T06:52:23.180Z,35
2016-11-11T06:53:33.147Z,35
2016-11-11T06:54:42.853Z,35
2016-11-11T06:55:52.829Z,35
2016-11-11T06:57:02.797Z,30
2016-11-11T06:58:13.074Z,30
2016-11-11T06:59:23.060Z,25
2016-11-11T07:00:33.336Z,20
2016-11-11T07:01:43.308Z,20
2016-11-11T07:02:53.582Z,20
2016-11-11T07:04:03.862Z,25
2016-11-11T07:05:14.163Z,30
2016-11-11T07:06:23.810Z,25
2016-11-11T07:07:34.128Z,20
2016-11-11T07:08:44.395Z,25
2016-11-11T07:09:54.662Z,30
2016-11-11T07:11:04.932Z,30
2016-11-11T07:12:14.939Z,30
2016-11-11T07:13:24.912Z,30
2016-11-11T07:14:35.211Z,30
2016-11-11T07:15:45.495Z,35
2016-11-11T07:16:55.472Z,30
2016-11-11T07:18:05.453Z,30
2016-11-11T07:19:15.173Z,30
2016-11-11T07:20:25.453Z,30
2016-11-11T07:21:35.414Z,35
2016-11-11T07:22:45.084Z,40
2016-11-11T07:23:55.357Z,40
2016-11-11T07:25:05.059Z,35
2016-11-11T07:26:15.025Z,40
2016-11-11T07:27:25.006Z,35
2016-11-11T07:28:35.298Z,35
2016-11-11T07:29:45.265Z,40
2016-11-11T07:30:55.252Z,35
2016-11-11T07:32:04.921Z,40
2016-11-11T07:33:15.195Z,45
2016-11-11T07:34:25.157Z,45
2016-11-11T07:35:35.454Z,45
2016-11-11T07:36:45.748Z,45
2016-11-11T07:37:55.722Z,50
2016-11-11T07:39:05.683Z,50
2016-11-11T07:40:15.360Z,50
2016-11-11T07:41:25.037Z,50
2016-11-11T07:42:35.333Z,55
2016-11-11T07:43:45.623Z,55
2016-11-11T07:44:55.908Z,50
2016-11-11T07:46:05.883Z,50
2016-11-11T07:47:15.864Z,50
2016-11-11T07:48:25.827Z,55
2016-11-11T07:49:36.114Z,50
2016-11-11T07:50:46.390Z,55
2016-11-11T07:51:56.354Z,55
2016-11-11T07:53:06.632Z,55
2016-11-11T07:54:16.608Z,55
2016-11-11T07:55:26.587Z,55
2016-11-11T07:56:36.549Z,65
2016-11-11T07:57:46.520Z,60
2016-11-11T07:58:56.500Z,60
2016-11-11T08:00:06.184Z,55
2016-11-11T08:01:16.172Z,55
2016-11-11T08:02:26.682Z,60
2016-11-11T08:03:36.648Z,55
2016-11-11T08:04:46.921Z,60
2016-11-11T08:05:56.882Z,70
2016-11-11T08:07:07.174Z,65
2016-11-11T08:08:17.137Z,55
2016-11-11T08:09:26.802Z,70
2016-11-11T08:10:37.080Z,75
2016-11-11T08:11:47.046Z,75
2016-11-11T08:12:57.313Z,55
2016-11-11T08:14:06.974Z,65
2016-11-11T08:15:17.251Z,60
2016-11-11T08:16:27.241Z,55
2016-11-11T08:17:37.543Z,50
2016-11-11T08:18:47.837Z,50
2016-11-11T08:19:57.848Z,45
2016-11-11T08:21:07.889Z,40
2016-11-11T08:22:17.561Z,40
2016-11-11T08:23:27.529Z,40
2016-11-11T08:24:37.491Z,40
2016-11-11T08:25:47.450Z,45
2016-11-11T08:26:57.732Z,45
2016-11-11T08:28:08.009Z,45
2016-11-11T08:29:18.296Z,40
2016-11-11T08:30:28.267Z,40
2016-11-11T08:31:38.248Z,40
2016-11-11T08:32:48.222Z,40
2016-11-11T08:33:58.194Z,45
2016-11-11T08:35:08.187Z,45
2016-11-11T08:36:18.182Z,50
2016-11-11T08:37:28.457Z,45
2016-11-11T08:38:38.721Z,50
2016-11-11T08:39:49.012Z,55
2016-11-11T08:40:59.288Z,60
2016-11-11T08:42:09.586Z,55
2016-11-11T08:43:19.551Z,55
2016-11-11T08:44:28.295Z,70
2016-11-11T08:45:38.292Z,70
2016-11-11T08:46:48.272Z,65
2016-11-11T08:47:58.549Z,70
2016-11-11T08:49:08.815Z,65
2016-11-11T08:50:18.786Z,65
2016-11-11T08:51:28.798Z,70
2016-11-11T08:52:38.481Z,75
2016-11-11T08:53:48.466Z,60
2016-11-11T08:54:58.762Z,65
2016-11-11T08:56:09.054Z,65
2016-11-11T08:57:19.352Z,55
2016-11-11T08:58:29.644Z,50
2016-11-11T08:59:39.985Z,55
2016-11-11T09:00:49.352Z,55
2016-11-11T09:01:59.330Z,45
2016-11-11T09:03:09.316Z,45
2016-11-11T09:04:19.617Z,45
2016-11-11T09:05:29.583Z,45
2016-11-11T09:06:39.555Z,45
2016-11-11T09:07:49.516Z,45
2016-11-11T09:08:59.798Z,45
2016-11-11T09:10:10.071Z,45
2016-11-11T09:11:20.037Z,45
2016-11-11T09:12:30.305Z,45
2016-11-11T09:13:40.444Z,50
2016-11-11T09:14:50.741Z,45
2016-11-11T09:16:01.023Z,45
2016-11-11T09:17:11.310Z,45
2016-11-11T09:18:21.277Z,45
2016-11-11T09:19:31.580Z,45
2016-11-11T09:20:41.567Z,50
2016-11-11T09:21:51.851Z,50
2016-11-11T09:23:02.138Z,45
2016-11-11T09:24:12.450Z,35
2016-11-11T09:25:22.726Z,35
2016-11-11T09:26:32.994Z,35
2016-11-11T09:27:43.285Z,40
2016-11-11T09:28:53.565Z,40
2016-11-11T09:30:03.534Z,40
2016-11-11T09:31:13.829Z,40
2016-11-11T09:32:23.800Z,40
2016-11-11T09:33:33.765Z,40
2016-11-11T09:34:44.051Z,40
2016-11-11T09:35:54.336Z,40
2016-11-11T09:37:04.619Z,45
2016-11-11T09:38:14.576Z,45
2016-11-11T09:39:24.851Z,45
2016-11-11T09:40:35.148Z,45
2016-11-11T09:41:45.475Z,45
2016-11-11T09:42:55.771Z,50
2016-11-11T09:44:06.048Z,55
2016-11-11T09:45:16.021Z,60
2016-11-11T09:46:26.312Z,60
2016-11-11T09:47:36.304Z,70
2016-11-11T09:48:46.591Z,75
2016-11-11T09:49:56.873Z,80
2016-11-11T09:51:07.149Z,85
2016-11-11T09:52:17.864Z,85
2016-11-11T09:53:28.159Z,80
2016-11-11T09:54:38.859Z,85
2016-11-11T09:55:49.151Z,80
2016-11-11T09:56:59.472Z,70
2016-11-11T09:58:09.472Z,65
2016-11-11T09:59:19.788Z,65
2016-11-11T10:00:30.124Z,60
2016-11-11T10:01:40.129Z,60
2016-11-11T10:02:50.121Z,60
2016-11-11T10:04:00.451Z,60
2016-11-11T10:05:10.850Z,60
2016-11-11T10:06:20.835Z,65
2016-11-11T10:07:30.839Z,70
2016-11-11T10:08:40.854Z,75
2016-11-11T10:09:50.549Z,75
2016-11-11T10:11:00.906Z,80
2016-11-11T10:12:11.219Z,80
2016-11-11T10:13:21.548Z,80
2016-11-11T10:14:31.577Z,80
2016-11-11T10:15:41.909Z,75
2016-11-11T10:16:52.253Z,75
2016-11-11T10:18:02.580Z,70
2016-11-11T10:19:12.921Z,70
2016-11-11T10:20:23.220Z,70
2016-11-11T10:21:33.217Z,70
2016-11-11T10:22:43.508Z,65
2016-11-11T10:23:53.841Z,60
2016-11-11T10:25:04.140Z,60
2016-11-11T10:26:14.154Z,65
2016-11-11T10:27:24.510Z,60
2016-11-11T10:28:34.583Z,60
2016-11-11T10:29:44.866Z,55
2016-11-11T10:30:54.874Z,50
2016-11-11T10:32:05.212Z,45
2016-11-11T10:33:14.962Z,45
2016-11-11T10:34:25.280Z,40
2016-11-11T10:35:35.618Z,45
2016-11-11T10:36:45.633Z,45
2016-11-11T10:37:55.996Z,45
2016-11-11T10:39:06.364Z,45
2016-11-11T10:40:16.662Z,45
2016-11-11T10:41:27.031Z,45
2016-11-11T10:42:37.312Z,45
2016-11-11T10:43:47.302Z,50
2016-11-11T10:44:57.935Z,50
2016-11-11T10:46:08.263Z,50
2016-11-11T10:47:18.548Z,50
2016-11-11T10:48:28.882Z,50
2016-11-11T10:49:39.196Z,50
2016-11-11T10:50:49.470Z,50
2016-11-11T10:51:59.806Z,50
2016-11-11T10:53:10.151Z,50
2016-11-11T10:54:20.466Z,50
2016-11-11T10:55:30.473Z,50
2016-11-11T10:56:40.767Z,50
2016-11-11T10:57:51.076Z,45
2016-11-11T10:59:01.062Z,45
2016-11-11T11:00:11.403Z,40
2016-11-11T11:01:21.163Z,40
2016-11-11T11:02:31.522Z,35
2016-11-11T11:03:41.825Z,35
2016-11-11T11:04:52.144Z,30
2016-11-11T11:06:02.541Z,30
2016-11-11T11:07:12.859Z,30
2016-11-11T11:08:23.171Z,35
2016-11-11T11:09:33.525Z,35
2016-11-11T11:10:43.514Z,35
2016-11-11T11:11:53.818Z,40
2016-11-11T11:13:04.122Z,40
2016-11-11T11:14:14.424Z,45
2016-11-11T11:15:24.718Z,50
2016-11-11T11:16:35.018Z,50
2016-11-11T11:17:45.299Z,45
2016-11-11T11:18:55.282Z,45
2016-11-11T11:20:05.587Z,45
2016-11-11T11:21:15.887Z,45
2016-11-11T11:22:25.551Z,50
2016-11-11T11:23:35.545Z,50
2016-11-11T11:24:45.832Z,65
2016-11-11T11:25:56.145Z,70
2016-11-11T11:27:06.142Z,75
2016-11-11T11:28:16.462Z,75
2016-11-11T11:29:26.746Z,85
2016-11-11T11:30:37.033Z,110
2016-11-11T11:31:47.329Z,125
2016-11-11T11:32:57.638Z,140
2016-11-11T11:34:07.969Z,140
2016-11-11T11:35:18.269Z,120
2016-11-11T11:36:28.557Z,100
2016-11-11T11:37:38.871Z,90
2016-11-11T11:38:49.170Z,80
2016-11-11T11:39:59.455Z,70
2016-11-11T11:41:09.444Z,70
2016-11-11T11:42:19.417Z,70
2016-11-11T11:43:29.704Z,75
2016-11-11T11:44:39.712Z,70
2016-11-11T11:45:50.016Z,70
2016-11-11T11:47:00.004Z,65
2016-11-11T11:48:10.334Z,55
2016-11-11T11:49:20.592Z,55
2016-11-11T11:50:30.870Z,50
2016-11-11T11:51:41.185Z,55
2016-11-11T11:52:51.483Z,60
2016-11-11T11:54:01.815Z,60
2016-11-11T11:55:12.102Z,60
2016-11-11T11:56:22.381Z,65
2016-11-11T11:57:32.366Z,65
2016-11-11T11:58:42.664Z,65
2016-11-11T11:59:52.959Z,65
2016-11-11T12:01:03.296Z,70
2016-11-11T12:02:13.602Z,65
2016-11-11T12:03:23.879Z,65
2016-11-11T12:04:33.575Z,60
2016-11-11T12:05:43.878Z,55
2016-11-11T12:06:53.542Z,55
2016-11-11T12:08:03.839Z,50
2016-11-11T12:09:14.159Z,45
2016-11-11T12:10:24.449Z,45
2016-11-11T12:11:34.751Z,40
2016-11-11T12:12:45.052Z,40
2016-11-11T12:13:55.036Z,40
2016-11-11T12:15:05.326Z,45
2016-11-11T12:16:15.913Z,40
2016-11-11T12:17:25.894Z,40
2016-11-11T12:18:36.198Z,40
2016-11-11T12:19:46.503Z,40
2016-11-11T12:20:56.797Z,35
2016-11-11T12:22:07.103Z,35
2016-11-11T12:23:17.383Z,35
2016-11-11T12:24:27.669Z,40
2016-11-11T12:25:37.642Z,40
2016-11-11T12:26:47.622Z,40
2016-11-11T12:27:57.910Z,40
2016-11-11T12:29:08.203Z,40
2016-11-11T12:30:18.491Z,40
2016-11-11T12:31:28.774Z,40
2016-11-11T12:32:39.075Z,40
2016-11-11T12:33:49.370Z,40
2016-11-11T12:34:59.702Z,40
2016-11-11T12:36:09.990Z,35
2016-11-11T12:37:20.287Z,35
2016-11-11T12:38:30.584Z,35
2016-11-11T12:39:40.905Z,35
2016-11-11T12:40:51.183Z,35
2016-11-11T12:42:01.177Z,35
2016-11-11T12:43:11.477Z,35
2016-11-11T12:44:21.490Z,35
2016-11-11T12:45:31.791Z,35
2016-11-11T12:46:41.763Z,35
2016-11-11T12:47:51.755Z,35
2016-11-11T12:49:02.046Z,30
2016-11-11T12:50:12.350Z,30
2016-11-11T12:51:22.655Z,30
2016-11-11T12:52:32.993Z,30
2016-11-11T12:53:42.688Z,30
2016-11-11T12:54:53.009Z,30
2016-11-11T12:56:03.304Z,25
2016-11-11T12:57:13.600Z,25
2016-11-11T12:58:23.589Z,25
2016-11-11T12:59:33.575Z,25
2016-11-11T13:00:43.868Z,25
2016-11-11T13:01:54.170Z,20
2016-11-11T13:03:04.474Z,20
2016-11-11T13:04:14.469Z,20
2016-11-11T13:05:24.771Z,20
2016-11-11T13:06:34.740Z,20
2016-11-11T13:07:44.732Z,20
2016-11-11T13:08:55.031Z,20
2016-11-11T13:10:05.336Z,20
2016-11-11T13:11:15.626Z,20
2016-11-11T13:12:25.929Z,20
2016-11-11T13:13:36.214Z,15
2016-11-11T13:14:46.507Z,15
2016-11-11T13:15:56.189Z,15
2016-11-11T13:17:06.180Z,20
2016-11-11T13:18:16.467Z,20
2016-11-11T13:19:26.450Z,20
2016-11-11T13:20:36.754Z,20
2016-11-11T13:21:47.028Z,20
2016-11-11T13:22:57.014Z,20
2016-11-11T13:24:07.324Z,20
2016-11-11T13:25:17.598Z,20
2016-11-11T13:26:27.880Z,20
2016-11-11T13:27:37.856Z,20
2016-11-11T13:28:48.153Z,20
2016-11-11T13:29:58.140Z,20
2016-11-11T13:31:08.457Z,25
2016-11-11T13:32:18.437Z,25
2016-11-11T13:33:28.096Z,25
2016-11-11T13:34:38.070Z,25
2016-11-11T13:35:48.364Z,25
2016-11-11T13:36:58.664Z,25
2016-11-11T13:38:08.965Z,25
2016-11-11T13:39:19.281Z,25
2016-11-11T13:40:29.256Z,20
2016-11-11T13:41:39.556Z,20
2016-11-11T13:42:49.881Z,20
2016-11-11T13:44:00.185Z,20
2016-11-11T13:45:10.466Z,20
2016-11-11T13:46:20.753Z,25
2016-11-11T13:47:31.045Z,20
2016-11-11T13:48:41.383Z,20
2016-11-11T13:49:51.733Z,20
2016-11-11T13:51:02.017Z,20
2016-11-11T13:52:12.366Z,20
2016-11-11T13:53:22.351Z,20
2016-11-11T13:54:32.667Z,20
2016-11-11T13:55:42.971Z,15
2016-11-11T13:56:53.313Z,15
2016-11-11T13:58:03.606Z,15
2016-11-11T13:59:13.939Z,10
2016-11-11T14:00:24.272Z,10
2016-11-11T14:01:34.622Z,10
2016-11-11T14:02:44.970Z,10
2016-11-11T14:03:55.309Z,5
2016-11-11T14:05:06.049Z,5
2016-11-11T14:06:16.104Z,5
2016-11-11T14:07:26.126Z,5
2016-11-11T14:08:36.429Z,5
2016-11-11T14:09:46.754Z,5
2016-11-11T14:10:57.109Z,5
2016-11-11T14:12:08.027Z,5
2016-11-11T14:13:18.364Z,5
2016-11-11T14:14:28.666Z,5
2016-11-11T14:15:39.134Z,5
2016-11-11T14:16:49.141Z,5
2016-11-11T14:17:59.450Z,5
2016-11-11T14:19:09.767Z,5
2016-11-11T14:20:20.086Z,5
2016-11-11T14:21:30.426Z,5
2016-11-11T14:22:40.740Z,5
2016-11-11T14:23:51.085Z,5
2016-11-11T14:25:01.422Z,5
2016-11-11T14:26:11.785Z,5
2016-11-11T14:27:22.131Z,5
2016-11-11T14:28:32.486Z,5
2016-11-11T14:29:42.205Z,5
2016-11-11T14:30:51.912Z,5
2016-11-11T14:32:01.646Z,5
2016-11-11T14:33:12.013Z,5
2016-11-11T14:34:22.313Z,5
2016-11-11T14:35:32.621Z,0
2016-11-11T14:36:42.927Z,0
2016-11-11T14:37:53.226Z,0
2016-11-11T14:39:03.519Z,0
2016-11-11T14:40:13.838Z,0
2016-11-11T14:41:23.816Z,0
2016-11-11T14:42:33.813Z,0
2016-11-11T14:43:43.179Z,0
2016-11-11T14:44:53.459Z,0
2016-11-11T14:46:03.753Z,0
2016-11-11T14:47:14.060Z,0
2016-11-11T14:48:24.020Z,0
2016-11-11T14:49:34.336Z,0
2016-11-11T14:50:44.644Z,0
2016-11-11T14:51:54.955Z,0
2016-11-11T14:53:05.245Z,0
2016-11-11T14:54:15.234Z,0
2016-11-11T14:55:25.254Z,0
2016-11-11T14:56:35.593Z,0
2016-11-11T14:57:45.895Z,0
2016-11-11T14:58:55.871Z,0
2016-11-11T15:00:05.870Z,0
2016-11-11T15:01:16.163Z,0
2016-11-11T15:02:26.461Z,0
2016-11-11T15:03:36.759Z,0
2016-11-11T15:04:47.044Z,0
2016-11-11T15:05:57.382Z,0
2016-11-11T15:07:07.684Z,0
2016-11-11T15:08:17.974Z,0
2016-11-11T15:09:28.247Z,0
2016-11-11T15:10:38.575Z,0
2016-11-11T15:11:48.938Z,0
2016-11-11T15:12:59.221Z,0
2016-11-11T15:14:09.519Z,0
2016-11-11T15:15:19.860Z,0
2016-11-11T15:16:30.061Z,0
2016-11-11T15:17:40.362Z,0
2016-11-11T15:18:50.673Z,0
2016-11-11T15:20:00.705Z,0
2016-11-11T15:21:10.998Z,0
2016-11-11T15:22:21.279Z,0
2016-11-11T15:23:31.595Z,0
2016-11-11T15:24:41.898Z,0
2016-11-11T15:25:51.886Z,0
2016-11-11T15:27:02.185Z,0
2016-11-11T15:28:12.518Z,0
2016-11-11T15:29:22.492Z,0
2016-11-11T15:30:32.773Z,0
2016-11-11T15:31:43.067Z,0
2016-11-11T15:32:53.363Z,0
2016-11-11T15:34:03.660Z,0
2016-11-11T15:35:13.949Z,0
2016-11-11T15:36:23.984Z,0
2016-11-11T15:37:33.948Z,0
2016-11-11T15:38:44.242Z,0
2016-11-11T15:39:54.559Z,0
2016-11-11T15:41:04.564Z,0
2016-11-11T15:42:14.887Z,0
2016-11-11T15:43:25.190Z,0
2016-11-11T15:44:35.499Z,0
2016-11-11T15:45:45.826Z,0
2016-11-11T15:46:55.860Z,0
2016-11-11T15:48:06.168Z,0
2016-11-11T15:49:16.484Z,0
2016-11-11T15:50:26.806Z,0
2016-11-11T15:51:36.843Z,0
2016-11-11T15:52:47.180Z,0
2016-11-11T15:53:57.528Z,0
2016-11-11T15:55:07.891Z,0
2016-11-11T15:56:18.213Z,0
2016-11-11T15:57:28.534Z,0
2016-11-11T15:58:38.871Z,0
2016-11-11T15:59:49.192Z,0
2016-11-11T16:00:59.544Z,0
2016-11-11T16:02:09.264Z,0
2016-11-11T16:03:19.280Z,0
2016-11-11T16:04:29.606Z,0
2016-11-11T16:05:39.925Z,0
2016-11-11T16:06:49.951Z,0
2016-11-11T16:08:00.312Z,0
2016-11-11T16:09:10.623Z,0
2016-11-11T16:10:20.323Z,0
2016-11-11T16:11:30.647Z,0
2016-11-11T16:12:40.987Z,0
2016-11-11T16:13:51.291Z,0
2016-11-11T16:15:01.539Z,0
2016-11-11T16:16:11.847Z,0
2016-11-11T16:17:21.863Z,0
2016-11-11T16:18:32.171Z,0
2016-11-11T16:19:42.477Z,0
2016-11-11T16:20:52.772Z,0
2016-11-11T16:22:03.103Z,0
2016-11-11T16:23:13.140Z,0
2016-11-11T16:24:23.462Z,0
2016-11-11T16:25:33.169Z,0
2016-11-11T16:26:43.465Z,0
2016-11-11T16:27:53.786Z,0
2016-11-11T16:29:03.819Z,0
2016-11-11T16:30:13.843Z,0
2016-11-11T16:31:24.667Z,0
2016-11-11T16:32:34.998Z,0
2016-11-11T16:33:45.274Z,0
2016-11-11T16:34:55.593Z,0
2016-11-11T16:36:05.922Z,0
2016-11-11T16:37:16.232Z,0
2016-11-11T16:38:26.562Z,0
2016-11-11T16:39:36.880Z,0
2016-11-11T16:40:47.177Z,0
2016-11-11T16:41:57.491Z,0
2016-11-11T16:43:07.809Z,0
2016-11-11T16:44:18.411Z,0
2016-11-11T16:45:28.725Z,0
2016-11-11T16:46:39.698Z,0
2016-11-11T16:47:50.060Z,0
2016-11-11T16:49:00.401Z,0
2016-11-11T16:50:10.709Z,0
2016-11-11T16:51:20.697Z,0
2016-11-11T16:52:30.687Z,0
2016-11-11T16:53:40.979Z,0
2016-11-11T16:54:50.990Z,0
2016-11-11T16:56:01.282Z,0
2016-11-11T16:57:11.278Z,0
2016-11-11T16:58:21.577Z,0
2016-11-11T16:59:31.308Z,0
2016-11-11T17:00:41.623Z,0
2016-11-11T17:01:51.606Z,0
2016-11-11T17:03:01.911Z,0
2016-11-11T17:04:12.213Z,0
2016-11-11T17:05:22.525Z,0
2016-11-11T17:06:32.822Z,0
2016-11-11T17:07:43.113Z,0
2016-11-11T17:08:53.095Z,0
2016-11-11T17:10:03.081Z,0
2016-11-11T17:11:13.398Z,0
2016-11-11T17:12:23.415Z,0
2016-11-11T17:13:33.405Z,0
2016-11-11T17:14:43.376Z,0
2016-11-11T17:15:53.674Z,0
2016-11-11T17:17:03.690Z,0
2016-11-11T17:18:13.972Z,0
2016-11-11T17:19:24.261Z,0
2016-11-11T17:20:34.250Z,0
2016-11-11T17:21:44.242Z,0
2016-11-11T17:22:54.535Z,0
2016-11-11T17:24:04.526Z,0
2016-11-11T17:25:14.840Z,0
2016-11-11T17:26:25.126Z,0
2016-11-11T17:27:35.518Z,0
2016-11-11T17:28:45.861Z,0